Time;durP1;ratioP1;P1;durP2;ratioP2;P2;SDS_P1;SDS_P2;PMS_P1;PMS_P2;Temp;Humidity;BMP_temperature;BMP_pressure;BME280_temperature;BME280_humidity;BME280_pressure;Samples;Min_cycle;Max_cycle;Signal;HPM_P1;HPM_P2
2021/12/10 00:02:08;;;;;;;18.90;16.30;;;3.60;99.90;;;;;;6228130;28;20479;-64
2021/12/10 00:05:13;;;;;;;19.80;14.80;;;3.50;99.90;;;;;;6228354;28;20826;-63
2021/12/10 00:08:17;;;;;;;19.43;15.97;;;3.50;99.90;;;;;;6229971;28;20988;-63
2021/12/10 00:11:26;;;;;;;21.33;15.03;;;3.50;99.90;;;;;;6228487;28;20475;-63
2021/12/10 00:14:31;;;;;;;14.87;13.27;;;3.50;99.90;;;;;;6227654;28;20480;-62
2021/12/10 00:17:35;;;;;;;19.47;15.20;;;3.50;99.90;;;;;;6228271;28;20483;-63
2021/12/10 00:20:40;;;;;;;20.40;15.13;;;3.40;99.90;;;;;;6227969;28;20475;-62
2021/12/10 00:23:46;;;;;;;17.10;13.50;;;3.40;99.90;;;;;;6227915;28;20487;-63
2021/12/10 00:26:51;;;;;;;17.23;13.23;;;3.40;99.90;;;;;;6227928;28;20468;-63
2021/12/10 00:30:02;;;;;;;18.37;14.43;;;3.50;99.90;;;;;;6229075;28;20441;-63
2021/12/10 00:33:13;;;;;;;19.07;14.63;;;3.50;99.90;;;;;;6228005;28;20876;-63
2021/12/10 00:36:16;;;;;;;23.00;16.77;;;3.40;99.90;;;;;;6228123;28;21001;-63
2021/12/10 00:39:23;;;;;;;21.17;16.60;;;3.40;99.90;;;;;;6227992;28;20467;-64
2021/12/10 00:42:31;;;;;;;21.60;16.90;;;3.30;99.90;;;;;;6227447;28;20468;-64
2021/12/10 00:45:34;;;;;;;25.37;17.57;;;3.30;99.90;;;;;;6222991;28;20483;-64
2021/12/10 00:48:38;;;;;;;22.87;18.20;;;3.40;99.90;;;;;;6227969;28;20471;-64
2021/12/10 00:51:43;;;;;;;21.97;17.93;;;3.40;99.90;;;;;;6228449;28;20474;-64
2021/12/10 00:54:47;;;;;;;23.20;16.83;;;3.50;99.90;;;;;;6228292;28;20487;-63
2021/12/10 00:57:51;;;;;;;24.90;16.87;;;3.50;99.90;;;;;;6227823;28;20471;-62
2021/12/10 01:00:57;;;;;;;22.80;16.90;;;3.40;99.90;;;;;;6228024;28;20464;-63
2021/12/10 01:04:06;;;;;;;21.80;16.70;;;3.40;99.90;;;;;;6228434;28;20484;-64
2021/12/10 01:07:15;;;;;;;23.73;17.17;;;3.40;99.90;;;;;;6228236;28;20472;-62
2021/12/10 01:10:25;;;;;;;23.13;17.70;;;3.40;99.90;;;;;;6226328;28;20471;-62
2021/12/10 01:13:33;;;;;;;19.40;15.57;;;3.40;99.90;;;;;;6226294;28;20817;-64
2021/12/10 01:26:54;;;;;;;22.10;16.30;;;3.30;99.90;;;;;;6226236;28;20534;-65
2021/12/10 01:30:04;;;;;;;23.10;17.30;;;3.30;99.90;;;;;;6225579;28;20738;-63
2021/12/10 01:33:09;;;;;;;19.33;16.00;;;3.30;99.90;;;;;;6226318;28;20432;-63
2021/12/10 01:36:13;;;;;;;25.13;16.57;;;3.30;99.90;;;;;;6226510;28;21331;-63
2021/12/10 01:39:22;;;;;;;23.23;16.97;;;3.30;99.90;;;;;;6226658;28;20479;-64
2021/12/10 01:42:38;;;;;;;19.33;15.27;;;3.20;99.90;;;;;;6226631;28;20494;-63
2021/12/10 01:45:47;;;;;;;20.80;17.30;;;3.10;99.90;;;;;;6225883;28;20553;-63
2021/12/10 01:48:54;;;;;;;23.60;17.40;;;3.10;99.90;;;;;;6225233;28;20476;-64
2021/12/10 01:51:59;;;;;;;24.07;16.80;;;3.10;99.90;;;;;;6224745;28;20484;-64
2021/12/10 01:55:04;;;;;;;21.77;16.17;;;3.10;99.90;;;;;;6223436;28;20487;-63
2021/12/10 01:58:10;;;;;;;25.77;17.60;;;3.10;99.90;;;;;;6223575;28;20472;-64
2021/12/10 02:01:18;;;;;;;21.80;16.70;;;3.10;99.90;;;;;;6223571;28;20491;-64
2021/12/10 02:04:25;;;;;;;22.27;17.93;;;3.20;99.90;;;;;;6224354;28;20476;-63
2021/12/10 02:07:29;;;;;;;22.27;16.67;;;3.20;99.90;;;;;;6223619;28;20488;-64
2021/12/10 02:10:32;;;;;;;24.17;17.90;;;3.20;99.90;;;;;;6224184;28;20490;-64
2021/12/10 02:13:36;;;;;;;22.37;17.43;;;3.20;99.90;;;;;;6224643;28;20475;-64
2021/12/10 02:16:41;;;;;;;21.60;16.97;;;3.20;99.90;;;;;;6225013;28;20484;-64
2021/12/10 02:19:44;;;;;;;23.97;16.40;;;3.10;99.90;;;;;;6225341;28;20491;-64
2021/12/10 02:22:49;;;;;;;20.90;16.77;;;3.10;99.90;;;;;;6224581;28;20476;-63
2021/12/10 02:25:55;;;;;;;24.23;18.30;;;3.10;99.90;;;;;;6224708;28;20476;-63
2021/12/10 02:28:58;;;;;;;23.97;17.97;;;3.10;99.90;;;;;;6225701;28;20483;-63
2021/12/10 02:32:01;;;;;;;27.43;19.87;;;3.20;99.90;;;;;;6225335;28;20976;-63
2021/12/10 02:35:06;;;;;;;29.80;20.50;;;3.20;99.90;;;;;;6225755;28;20543;-63
2021/12/10 02:38:11;;;;;;;26.40;19.63;;;3.10;99.90;;;;;;6215610;28;20956;-64
2021/12/10 02:41:15;;;;;;;31.17;20.23;;;3.00;99.90;;;;;;6205573;28;20526;-64
2021/12/10 02:44:22;;;;;;;31.20;20.67;;;3.00;99.90;;;;;;6220916;28;20478;-64
2021/12/10 02:47:26;;;;;;;29.60;19.47;;;3.00;99.90;;;;;;6228119;28;20487;-64
2021/12/10 02:50:32;;;;;;;32.43;19.60;;;2.90;99.90;;;;;;6230549;28;20495;-65
2021/12/10 02:53:41;;;;;;;31.73;20.77;;;2.90;99.90;;;;;;6231659;28;20475;-67
2021/12/10 02:56:45;;;;;;;26.87;19.90;;;2.80;99.90;;;;;;6226251;28;20538;-65
2021/12/10 02:59:48;;;;;;;27.10;18.80;;;2.90;99.90;;;;;;6230156;28;20844;-65
2021/12/10 03:02:51;;;;;;;25.77;19.53;;;3.00;99.90;;;;;;6229836;28;20944;-64
2021/12/10 03:05:55;;;;;;;27.57;18.90;;;2.90;99.90;;;;;;6229740;28;20551;-64
2021/12/10 03:08:59;;;;;;;30.00;20.07;;;2.90;99.90;;;;;;6230532;28;20448;-67
2021/12/10 03:12:03;;;;;;;29.50;18.80;;;2.80;99.90;;;;;;6232288;28;20444;-67
2021/12/10 03:15:09;;;;;;;25.47;17.47;;;2.70;99.90;;;;;;6233425;28;20443;-67
2021/12/10 03:18:16;;;;;;;30.80;19.20;;;2.70;99.90;;;;;;6233990;28;20459;-67
2021/12/10 03:21:20;;;;;;;28.67;20.07;;;2.70;99.90;;;;;;6234498;28;20470;-67
2021/12/10 03:24:27;;;;;;;32.97;20.53;;;2.70;99.90;;;;;;6234721;28;20463;-66
2021/12/10 03:27:31;;;;;;;28.60;18.13;;;2.80;99.90;;;;;;6232463;28;20838;-66
2021/12/10 03:30:40;;;;;;;32.17;20.30;;;2.80;99.90;;;;;;6232552;28;20800;-67
2021/12/10 03:33:43;;;;;;;27.47;18.17;;;2.80;99.90;;;;;;6231382;28;20522;-64
2021/12/10 03:36:51;;;;;;;30.60;20.17;;;2.90;99.90;;;;;;6229691;28;20920;-63
2021/12/10 03:39:55;;;;;;;31.57;17.70;;;2.80;99.90;;;;;;6229280;28;20784;-63
2021/12/10 03:42:59;;;;;;;27.97;19.73;;;2.80;99.90;;;;;;6229031;28;20479;-64
2021/12/10 03:46:03;;;;;;;27.47;21.10;;;2.80;99.90;;;;;;6227585;28;20491;-65
2021/12/10 03:49:08;;;;;;;27.60;18.00;;;2.70;99.90;;;;;;6228543;28;20944;-65
2021/12/10 03:52:11;;;;;;;31.03;17.83;;;2.70;99.90;;;;;;6227940;28;20475;-65
2021/12/10 03:55:16;;;;;;;26.07;16.80;;;2.70;99.90;;;;;;6228457;28;21014;-65
2021/12/10 03:58:19;;;;;;;28.67;17.20;;;2.60;99.90;;;;;;6227513;28;20983;-65
2021/12/10 04:01:25;;;;;;;24.47;16.50;;;2.60;99.90;;;;;;6228592;28;20476;-63
2021/12/10 04:04:32;;;;;;;26.73;19.00;;;2.60;99.90;;;;;;6228009;28;20479;-64
2021/12/10 04:07:36;;;;;;;23.47;16.10;;;2.60;99.90;;;;;;6228236;28;20498;-65
2021/12/10 04:10:41;;;;;;;26.93;18.03;;;2.60;99.90;;;;;;6227893;28;20463;-63
2021/12/10 04:13:47;;;;;;;28.20;18.37;;;2.60;99.90;;;;;;6228391;28;20487;-67
2021/12/10 04:16:55;;;;;;;29.03;17.13;;;2.60;99.90;;;;;;6227982;28;20472;-66
2021/12/10 04:19:59;;;;;;;25.03;17.57;;;2.60;99.90;;;;;;6228460;28;20488;-67
2021/12/10 04:23:05;;;;;;;30.17;18.80;;;2.50;99.90;;;;;;6227805;28;20472;-67
2021/12/10 04:26:10;;;;;;;25.37;17.90;;;2.60;99.90;;;;;;6228330;28;20971;-65
2021/12/10 04:29:14;;;;;;;26.67;18.33;;;2.60;99.90;;;;;;6228168;28;20802;-67
2021/12/10 04:32:17;;;;;;;26.83;17.33;;;2.60;99.90;;;;;;6227249;28;20475;-64
2021/12/10 04:35:20;;;;;;;25.43;16.90;;;2.50;99.90;;;;;;6228126;28;20499;-63
2021/12/10 04:38:26;;;;;;;27.03;17.70;;;2.50;99.90;;;;;;6227526;28;20476;-63
2021/12/10 04:41:31;;;;;;;30.00;18.20;;;2.50;99.90;;;;;;6227880;28;20567;-66
2021/12/10 04:44:34;;;;;;;26.63;18.00;;;2.60;99.90;;;;;;6227984;28;20483;-66
2021/12/10 04:47:37;;;;;;;28.20;19.20;;;2.60;99.90;;;;;;6228429;28;20792;-66
2021/12/10 04:50:41;;;;;;;29.53;18.90;;;2.70;99.90;;;;;;6227512;28;20490;-67
2021/12/10 04:53:44;;;;;;;29.00;19.67;;;2.70;99.90;;;;;;6227905;28;20483;-68
2021/12/10 04:56:50;;;;;;;30.70;22.10;;;2.40;99.90;;;;;;6227666;28;21094;-67
2021/12/10 04:59:53;;;;;;;30.40;19.60;;;2.30;99.90;;;;;;6227076;28;20472;-67
2021/12/10 05:03:00;;;;;;;35.00;21.10;;;2.30;99.90;;;;;;6226933;28;20802;-65
2021/12/10 05:06:04;;;;;;;27.40;20.40;;;2.30;99.90;;;;;;6226865;28;20806;-65
2021/12/10 05:09:10;;;;;;;30.20;19.50;;;2.40;99.90;;;;;;6226425;28;20448;-65
2021/12/10 05:12:17;;;;;;;26.27;20.33;;;2.40;99.90;;;;;;6202808;28;20453;-64
2021/12/10 05:15:22;;;;;;;32.20;19.97;;;2.40;99.90;;;;;;6202903;28;20484;-65
2021/12/10 05:18:28;;;;;;;29.70;17.57;;;2.40;99.90;;;;;;6202508;28;20471;-68
2021/12/10 05:21:34;;;;;;;27.93;17.60;;;2.40;99.90;;;;;;6202573;28;20469;-68
2021/12/10 05:24:38;;;;;;;28.53;18.47;;;2.40;99.90;;;;;;6203282;28;20992;-67
2021/12/10 05:27:43;;;;;;;31.70;18.20;;;2.30;99.90;;;;;;6203098;28;20477;-69
2021/12/10 05:30:48;;;;;;;31.13;20.47;;;2.30;99.90;;;;;;6203020;28;20476;-68
2021/12/10 05:33:52;;;;;;;27.17;18.70;;;2.30;99.90;;;;;;6202500;28;21004;-68
2021/12/10 05:36:56;;;;;;;26.27;17.87;;;2.30;99.90;;;;;;6202321;28;20477;-68
2021/12/10 05:40:00;;;;;;;26.87;15.90;;;2.30;99.90;;;;;;6201739;28;20469;-66
2021/12/10 05:43:04;;;;;;;27.33;17.07;;;2.40;99.90;;;;;;6201832;28;20503;-64
2021/12/10 05:46:08;;;;;;;32.53;20.30;;;2.40;99.90;;;;;;6201384;28;20477;-64
2021/12/10 05:49:12;;;;;;;32.37;19.20;;;2.30;99.90;;;;;;6201954;28;20615;-65
2021/12/10 05:52:15;;;;;;;27.67;19.10;;;2.30;99.90;;;;;;6202208;28;20472;-65
2021/12/10 05:55:19;;;;;;;29.90;18.17;;;2.40;99.90;;;;;;6201142;28;20985;-65
2021/12/10 05:58:24;;;;;;;29.87;19.03;;;2.40;99.90;;;;;;6201605;28;20600;-65
2021/12/10 06:01:28;;;;;;;29.17;17.87;;;2.20;99.90;;;;;;6201165;28;20480;-65
2021/12/10 06:04:32;;;;;;;31.57;19.03;;;2.00;99.90;;;;;;6201948;28;20523;-65
2021/12/10 06:07:36;;;;;;;27.07;17.57;;;2.00;99.90;;;;;;6196231;28;20941;-65
2021/12/10 06:10:41;;;;;;;30.17;18.30;;;1.90;99.90;;;;;;6214158;28;20468;-67
2021/12/10 06:13:46;;;;;;;23.50;15.37;;;1.90;99.90;;;;;;6226369;28;20472;-67
2021/12/10 06:16:52;;;;;;;32.23;17.77;;;1.90;99.90;;;;;;6226587;28;20488;-66
2021/12/10 06:19:56;;;;;;;28.60;16.50;;;1.80;99.90;;;;;;6225350;28;21208;-65
2021/12/10 06:23:00;;;;;;;26.27;15.90;;;1.70;99.90;;;;;;6225551;28;20480;-64
2021/12/10 06:26:04;;;;;;;27.47;16.57;;;1.70;99.90;;;;;;6225736;28;20487;-66
2021/12/10 06:29:12;;;;;;;24.97;15.70;;;1.60;99.90;;;;;;6225445;28;20467;-64
2021/12/10 06:32:16;;;;;;;26.20;19.10;;;1.60;99.90;;;;;;6225497;28;20479;-64
2021/12/10 06:35:20;;;;;;;26.90;16.37;;;1.70;99.90;;;;;;6225522;28;20471;-64
2021/12/10 06:38:25;;;;;;;26.43;16.00;;;1.70;99.90;;;;;;6225336;28;20476;-64
2021/12/10 06:41:28;;;;;;;27.37;16.97;;;1.80;99.90;;;;;;6225132;28;20964;-64
2021/12/10 06:44:32;;;;;;;27.80;17.20;;;1.80;99.90;;;;;;6225284;28;20534;-64
2021/12/10 06:47:36;;;;;;;27.17;17.53;;;1.80;99.90;;;;;;6225576;28;20498;-64
2021/12/10 06:50:44;;;;;;;27.27;18.00;;;1.80;99.90;;;;;;6225155;28;20482;-64
2021/12/10 06:53:47;;;;;;;26.03;16.23;;;1.80;99.90;;;;;;6224784;28;21038;-64
2021/12/10 06:56:52;;;;;;;30.30;16.53;;;1.70;99.90;;;;;;6224657;28;20495;-64
2021/12/10 06:59:57;;;;;;;26.30;17.53;;;1.70;99.90;;;;;;6225331;28;20913;-63
2021/12/10 07:03:01;;;;;;;29.43;16.53;;;1.70;99.90;;;;;;6224719;28;20498;-63
2021/12/10 07:06:06;;;;;;;32.60;19.47;;;1.80;99.90;;;;;;6225547;28;20496;-64
2021/12/10 07:09:14;;;;;;;27.93;18.40;;;1.80;99.90;;;;;;6225245;28;20432;-64
2021/12/10 07:12:19;;;;;;;30.50;17.80;;;1.80;99.90;;;;;;6201161;28;20457;-63
2021/12/10 07:15:25;;;;;;;20.87;13.70;;;1.80;99.90;;;;;;6200789;28;20484;-63
2021/12/10 07:18:28;;;;;;;24.67;16.07;;;1.80;99.90;;;;;;6201072;28;20488;-65
2021/12/10 07:21:32;;;;;;;28.93;17.63;;;1.70;99.90;;;;;;6205654;28;20960;-65
2021/12/10 07:24:35;;;;;;;26.43;16.63;;;1.60;99.90;;;;;;6205236;28;20484;-66
2021/12/10 07:27:38;;;;;;;29.83;18.80;;;1.50;99.90;;;;;;6205055;28;20481;-65
2021/12/10 07:30:44;;;;;;;28.27;18.57;;;1.50;99.90;;;;;;6204936;28;20491;-65
2021/12/10 07:33:47;;;;;;;27.63;16.30;;;1.50;99.90;;;;;;6219258;28;20531;-65
2021/12/10 07:36:50;;;;;;;33.03;18.60;;;1.60;99.90;;;;;;6229275;28;20487;-65
2021/12/10 07:39:54;;;;;;;28.43;20.20;;;1.70;99.90;;;;;;6230063;28;20483;-64
2021/12/10 07:42:57;;;;;;;29.97;19.00;;;1.70;99.90;;;;;;6229510;28;20471;-65
2021/12/10 07:46:02;;;;;;;26.63;17.37;;;1.80;99.90;;;;;;6229261;28;20952;-65
2021/12/10 07:49:07;;;;;;;29.37;17.73;;;2.00;99.90;;;;;;6229270;28;20967;-65
2021/12/10 07:52:18;;;;;;;31.30;18.67;;;2.00;99.90;;;;;;6229885;28;20472;-66
2021/12/10 07:55:23;;;;;;;32.10;19.43;;;2.10;99.90;;;;;;6234423;28;20484;-67
2021/12/10 07:58:26;;;;;;;32.37;18.50;;;2.10;99.90;;;;;;6233853;28;20468;-65
2021/12/10 08:01:33;;;;;;;33.97;20.10;;;2.20;99.90;;;;;;6228544;28;20495;-64
2021/12/10 08:04:37;;;;;;;28.50;17.80;;;2.30;99.90;;;;;;6228680;28;20551;-62
2021/12/10 08:07:41;;;;;;;30.43;18.20;;;2.30;99.90;;;;;;6228526;28;20809;-64
2021/12/10 08:10:47;;;;;;;36.53;20.30;;;2.40;99.90;;;;;;6228395;28;20551;-66
2021/12/10 08:13:50;;;;;;;33.27;19.33;;;2.40;99.90;;;;;;6228390;28;20621;-65
2021/12/10 08:16:55;;;;;;;28.90;19.37;;;2.40;99.90;;;;;;6219137;28;20561;-67
2021/12/10 08:19:59;;;;;;;34.90;21.17;;;2.30;99.90;;;;;;6231431;28;20484;-67
2021/12/10 08:23:02;;;;;;;29.97;19.20;;;2.30;99.90;;;;;;6231061;28;20495;-67
2021/12/10 08:26:06;;;;;;;32.20;19.00;;;2.40;99.90;;;;;;6232144;28;20515;-67
2021/12/10 08:29:11;;;;;;;28.70;16.60;;;2.30;99.90;;;;;;6229747;28;20483;-66
2021/12/10 08:32:20;;;;;;;28.37;17.47;;;2.30;99.90;;;;;;6227400;28;20961;-65
2021/12/10 08:35:29;;;;;;;25.07;17.20;;;2.40;99.90;;;;;;6228064;28;20475;-64
2021/12/10 08:38:33;;;;;;;28.30;18.23;;;2.30;99.90;;;;;;6227660;28;20498;-64
2021/12/10 08:41:37;;;;;;;23.00;15.83;;;2.30;99.90;;;;;;6227668;28;20483;-63
2021/12/10 08:44:42;;;;;;;28.93;17.10;;;2.30;99.90;;;;;;6228066;28;20476;-63
2021/12/10 08:47:48;;;;;;;24.13;16.77;;;2.30;99.90;;;;;;6227796;28;20961;-63
2021/12/10 08:50:52;;;;;;;22.30;15.40;;;2.40;99.90;;;;;;6227455;28;20881;-65
2021/12/10 08:53:55;;;;;;;29.93;19.17;;;2.50;99.90;;;;;;6227557;28;20436;-66
2021/12/10 08:56:59;;;;;;;27.40;17.80;;;2.60;99.90;;;;;;6227417;28;20944;-65
2021/12/10 09:00:04;;;;;;;34.53;19.40;;;2.70;99.90;;;;;;6228158;28;20509;-65
2021/12/10 09:03:11;;;;;;;26.50;19.20;;;2.70;99.90;;;;;;6229309;28;20460;-65
2021/12/10 09:06:15;;;;;;;33.17;20.57;;;2.80;99.90;;;;;;6228463;28;20468;-65
2021/12/10 09:09:20;;;;;;;28.37;17.77;;;2.80;99.90;;;;;;6231041;28;20463;-67
2021/12/10 09:12:25;;;;;;;24.53;16.67;;;2.80;99.90;;;;;;6229461;28;20484;-65
2021/12/10 09:15:29;;;;;;;26.73;17.67;;;2.80;99.90;;;;;;6225844;28;20479;-65
2021/12/10 09:18:38;;;;;;;25.73;18.67;;;2.70;99.90;;;;;;6222734;28;20468;-65
2021/12/10 09:21:42;;;;;;;27.50;17.17;;;2.60;99.90;;;;;;6226847;28;20475;-65
2021/12/10 09:24:47;;;;;;;29.07;19.40;;;2.50;99.90;;;;;;6226586;28;20476;-68
2021/12/10 09:27:50;;;;;;;34.07;22.70;;;2.70;99.90;;;;;;6226481;28;20493;-64
2021/12/10 09:30:58;;;;;;;29.23;18.33;;;2.80;99.90;;;;;;6226683;28;20471;-65
2021/12/10 09:34:03;;;;;;;27.73;18.10;;;2.90;99.90;;;;;;6226260;28;20976;-67
2021/12/10 09:37:08;;;;;;;26.23;17.00;;;2.90;99.90;;;;;;6226335;28;20480;-67
2021/12/10 09:40:14;;;;;;;29.87;19.30;;;2.80;99.90;;;;;;6227026;28;20480;-65
2021/12/10 09:43:18;;;;;;;31.70;19.40;;;2.80;99.90;;;;;;6224973;28;20476;-66
2021/12/10 09:46:21;;;;;;;26.97;17.13;;;2.80;99.90;;;;;;6227027;28;20476;-68
2021/12/10 09:49:27;;;;;;;38.57;22.93;;;2.80;99.90;;;;;;6225876;28;20550;-65
2021/12/10 09:52:31;;;;;;;40.90;23.23;;;2.80;99.90;;;;;;6226072;28;20849;-66
2021/12/10 09:55:34;;;;;;;45.47;25.17;;;2.60;99.90;;;;;;6225170;28;20495;-69
2021/12/10 09:58:38;;;;;;;38.13;22.03;;;2.40;99.90;;;;;;6226106;28;20476;-66
2021/12/10 10:01:47;;;;;;;40.23;23.10;;;2.40;99.90;;;;;;6226193;28;20537;-67
2021/12/10 10:04:54;;;;;;;39.83;21.00;;;2.50;99.90;;;;;;6227652;28;20476;-68
2021/12/10 10:08:02;;;;;;;35.30;21.27;;;2.60;99.90;;;;;;6227029;28;20494;-69
2021/12/10 10:11:08;;;;;;;38.77;22.10;;;2.60;99.90;;;;;;6225831;28;20948;-67
2021/12/10 10:14:17;;;;;;;37.23;23.40;;;2.70;99.90;;;;;;6228348;28;20715;-65
2021/12/10 10:17:22;;;;;;;37.87;20.53;;;2.50;99.90;;;;;;6227202;28;20476;-69
2021/12/10 10:20:30;;;;;;;35.90;19.50;;;2.50;99.90;;;;;;6225934;28;20494;-67
2021/12/10 10:23:34;;;;;;;42.97;25.10;;;2.50;99.90;;;;;;6227446;28;20472;-66
2021/12/10 10:26:40;;;;;;;41.90;22.30;;;2.40;99.90;;;;;;6213610;28;20487;-67
2021/12/10 10:29:49;;;;;;;35.37;21.00;;;2.30;99.90;;;;;;6225283;28;20468;-64
2021/12/10 10:32:53;;;;;;;51.40;23.47;;;2.30;99.90;;;;;;6225191;28;20464;-67
2021/12/10 10:36:08;;;;;;;35.10;20.00;;;2.40;99.90;;;;;;6224574;28;20800;-66
2021/12/10 10:39:15;;;;;;;41.23;19.93;;;2.50;99.90;;;;;;6225179;28;20424;-66
2021/12/10 10:42:23;;;;;;;34.23;20.20;;;2.50;99.90;;;;;;6225113;28;20470;-64
2021/12/10 10:45:33;;;;;;;29.10;16.77;;;2.50;99.90;;;;;;6225386;28;20474;-66
2021/12/10 10:48:36;;;;;;;38.47;20.17;;;2.40;99.90;;;;;;6225320;28;20471;-65
2021/12/10 10:51:42;;;;;;;33.00;21.77;;;2.30;99.90;;;;;;6224972;28;20509;-65
2021/12/10 10:54:48;;;;;;;31.50;18.93;;;2.40;99.90;;;;;;6227524;28;20483;-65
2021/12/10 10:57:56;;;;;;;33.20;18.10;;;2.40;99.90;;;;;;6230271;28;20944;-65
2021/12/10 11:01:09;;;;;;;34.50;20.03;;;2.30;99.90;;;;;;6230172;28;20467;-66
2021/12/10 11:04:35;;;;;;;28.10;16.10;;;2.30;99.90;;;;;;6230310;28;20602;-69
2021/12/10 11:07:47;;;;;;;37.53;20.17;;;2.20;99.90;;;;;;6230532;28;20983;-69
2021/12/10 11:10:51;;;;;;;31.60;17.27;;;2.30;99.90;;;;;;6229486;28;20482;-65
2021/12/10 11:14:04;;;;;;;20.77;15.30;;;2.40;99.90;;;;;;6229471;28;20478;-66
2021/12/10 11:17:11;;;;;;;32.00;17.83;;;2.50;99.90;;;;;;6228755;28;20951;-66
2021/12/10 11:20:42;;;;;;;29.37;17.50;;;2.70;99.90;;;;;;6229268;28;20476;-67
2021/12/10 11:23:47;;;;;;;27.40;16.80;;;2.70;99.90;;;;;;6229151;28;20472;-69
2021/12/10 11:26:55;;;;;;;24.73;15.50;;;2.90;99.90;;;;;;6229908;28;20486;-69
2021/12/10 11:30:11;;;;;;;23.07;15.40;;;2.90;99.90;;;;;;6229173;28;20448;-65
2021/12/10 11:33:17;;;;;;;28.73;17.10;;;2.90;99.90;;;;;;6228557;28;20460;-67
2021/12/10 11:36:23;;;;;;;29.63;17.00;;;3.00;99.90;;;;;;6223858;28;20540;-66
2021/12/10 11:43:00;;;;;;;31.90;17.63;;;3.00;99.90;;;;;;6333106;27;20533;-65
2021/12/10 11:46:27;;;;;;;28.23;16.67;;;3.10;99.90;;;;;;6296356;28;20475;-64
2021/12/10 11:49:35;;;;;;;24.93;15.70;;;3.50;99.90;;;;;;6312313;28;20507;-66
2021/12/10 11:52:39;;;;;;;26.77;15.67;;;3.40;99.90;;;;;;6281654;28;20478;-67
2021/12/10 11:56:12;;;;;;;25.43;15.67;;;3.40;99.90;;;;;;6272405;28;20961;-67
2021/12/10 11:59:18;;;;;;;23.80;14.97;;;3.30;99.90;;;;;;6291711;28;20556;-65
2021/12/10 12:02:23;;;;;;;31.23;16.97;;;3.10;99.90;;;;;;6296239;28;20481;-67
2021/12/10 12:05:30;;;;;;;23.70;15.90;;;3.10;99.90;;;;;;6297626;28;20607;-65
2021/12/10 12:08:38;;;;;;;26.70;15.53;;;3.00;99.90;;;;;;6297194;28;20490;-67
2021/12/10 12:11:44;;;;;;;21.20;15.20;;;3.00;99.90;;;;;;6297159;28;20480;-66
2021/12/10 12:14:53;;;;;;;26.00;15.47;;;3.10;99.90;;;;;;6290859;28;20492;-67
2021/12/10 12:17:59;;;;;;;22.00;15.50;;;3.30;99.90;;;;;;6296342;28;20549;-67
2021/12/10 12:27:42;;;;;;;61.53;41.67;;;3.30;99.90;;;;;;6270870;28;20478;-68
2021/12/10 12:31:10;;;;;;;29.40;17.07;;;3.30;99.90;;;;;;6261556;28;20570;-68
2021/12/10 12:34:21;;;;;;;26.13;15.80;;;3.30;99.90;;;;;;6288378;28;20469;-66
2021/12/10 12:37:26;;;;;;;29.50;16.23;;;3.30;99.90;;;;;;6294779;28;20496;-67
2021/12/10 12:41:07;;;;;;;28.77;16.10;;;3.20;99.90;;;;;;6294580;28;20619;-68
2021/12/10 12:44:21;;;;;;;25.30;15.07;;;3.00;99.90;;;;;;6295183;28;20477;-68
2021/12/10 12:47:48;;;;;;;26.00;15.20;;;2.90;99.90;;;;;;6294616;28;20595;-68
2021/12/10 12:51:19;;;;;;;25.37;14.70;;;2.90;99.90;;;;;;6320512;28;20495;-69
2021/12/10 12:54:22;;;;;;;26.30;14.33;;;2.90;99.90;;;;;;6293878;28;20497;-69
2021/12/10 12:57:37;;;;;;;26.00;15.67;;;2.70;99.90;;;;;;6278158;28;20811;-68
2021/12/10 13:01:09;;;;;;;25.47;14.67;;;2.60;99.90;;;;;;6278233;28;20462;-68
2021/12/10 13:04:16;;;;;;;24.00;15.30;;;2.70;99.90;;;;;;6278083;28;20497;-68
2021/12/10 13:07:40;;;;;;;25.73;15.07;;;2.70;99.90;;;;;;6277556;28;20493;-68
2021/12/10 13:10:50;;;;;;;27.70;15.23;;;2.70;99.90;;;;;;6277122;28;20470;-67
2021/12/10 13:14:00;;;;;;;23.90;14.60;;;2.60;99.90;;;;;;6277743;28;20485;-65
2021/12/10 13:17:12;;;;;;;24.90;15.00;;;2.70;99.90;;;;;;6277274;28;20474;-67
2021/12/10 13:20:20;;;;;;;26.77;15.73;;;2.80;99.90;;;;;;6277522;28;20992;-65
2021/12/10 13:23:27;;;;;;;22.33;13.90;;;2.80;99.90;;;;;;6275078;28;20474;-65
2021/12/10 13:26:31;;;;;;;26.57;15.13;;;2.90;99.90;;;;;;6252395;28;20967;-66
2021/12/10 13:29:35;;;;;;;25.80;14.70;;;2.90;99.90;;;;;;6252838;28;20544;-65
2021/12/10 13:32:42;;;;;;;27.50;15.73;;;3.00;99.90;;;;;;6256909;28;20473;-65
2021/12/10 13:35:48;;;;;;;23.13;13.60;;;3.00;99.90;;;;;;6272465;28;20560;-65
2021/12/10 13:38:53;;;;;;;21.07;13.47;;;3.00;99.90;;;;;;6277629;28;20988;-67
2021/12/10 13:41:57;;;;;;;23.33;15.90;;;3.10;99.90;;;;;;6276305;28;20474;-67
2021/12/10 13:45:00;;;;;;;24.07;14.37;;;3.10;99.90;;;;;;6277592;28;20441;-67
2021/12/10 13:48:08;;;;;;;28.93;16.43;;;3.10;99.90;;;;;;6276464;28;20471;-66
2021/12/10 13:51:17;;;;;;;25.90;14.50;;;3.10;99.90;;;;;;6301457;28;20824;-65
2021/12/10 13:54:23;;;;;;;27.93;16.80;;;3.10;99.90;;;;;;6301870;28;20461;-68
2021/12/10 13:57:26;;;;;;;27.23;17.80;;;3.10;99.90;;;;;;6275755;28;20966;-66
2021/12/10 14:00:29;;;;;;;25.10;15.93;;;3.20;99.90;;;;;;6252812;28;20486;-67
2021/12/10 14:03:52;;;;;;;25.67;15.97;;;3.30;99.90;;;;;;6252227;28;20869;-67
2021/12/10 14:07:08;;;;;;;24.77;15.20;;;3.40;99.90;;;;;;6252635;28;20678;-67
2021/12/10 14:10:30;;;;;;;25.03;14.80;;;3.40;99.90;;;;;;6253242;28;20467;-67
2021/12/10 14:13:34;;;;;;;26.43;15.47;;;3.40;99.90;;;;;;6251879;28;20466;-67
2021/12/10 14:16:50;;;;;;;21.57;15.70;;;3.40;99.90;;;;;;6263717;28;20493;-67
2021/12/10 14:20:19;;;;;;;22.97;15.07;;;3.50;99.90;;;;;;6277733;28;20700;-66
2021/12/10 14:23:46;;;;;;;24.70;15.47;;;3.50;99.90;;;;;;6273939;28;20491;-65
2021/12/10 14:27:14;;;;;;;22.70;15.27;;;3.50;99.90;;;;;;6252662;28;20463;-66
2021/12/10 14:30:41;;;;;;;27.93;16.40;;;3.50;99.90;;;;;;6252163;28;20552;-66
2021/12/10 14:33:46;;;;;;;27.60;16.80;;;3.50;99.90;;;;;;6264771;28;20466;-66
2021/12/10 14:37:00;;;;;;;23.20;15.40;;;3.50;99.90;;;;;;6277287;28;20488;-65
2021/12/10 14:40:11;;;;;;;24.80;16.40;;;3.40;99.90;;;;;;6276619;28;20537;-65
2021/12/10 14:43:18;;;;;;;30.90;19.73;;;3.40;99.90;;;;;;6276337;28;20478;-67
2021/12/10 14:46:32;;;;;;;51.70;30.77;;;3.30;99.90;;;;;;6277066;28;20571;-66
2021/12/10 14:49:58;;;;;;;27.13;17.90;;;3.30;99.90;;;;;;6280561;28;20569;-67
2021/12/10 14:53:27;;;;;;;26.43;17.87;;;3.30;99.90;;;;;;6282722;28;20919;-67
2021/12/10 14:56:57;;;;;;;24.03;17.83;;;3.20;99.90;;;;;;6300754;28;20551;-67
2021/12/10 15:00:44;;;;;;;28.40;17.83;;;3.20;99.90;;;;;;6226715;28;20518;-67
2021/12/10 15:04:25;;;;;;;25.57;16.33;;;3.20;99.90;;;;;;6226654;28;20634;-66
2021/12/10 15:07:49;;;;;;;30.27;18.00;;;3.30;99.90;;;;;;6237752;28;20785;-67
2021/12/10 15:11:20;;;;;;;23.60;16.00;;;3.20;99.90;;;;;;6245518;28;20484;-67
2021/12/10 15:14:55;;;;;;;29.87;16.47;;;3.20;99.90;;;;;;6225662;28;20542;-67
2021/12/10 15:17:58;;;;;;;25.23;18.70;;;3.20;99.90;;;;;;6247645;28;20453;-66
2021/12/10 15:21:15;;;;;;;33.80;19.07;;;3.10;99.90;;;;;;6250040;28;20493;-67
2021/12/10 15:24:23;;;;;;;29.70;19.83;;;3.10;99.90;;;;;;6250313;28;20509;-67
2021/12/10 15:27:29;;;;;;;34.13;20.70;;;3.20;99.90;;;;;;6250755;28;20493;-66
2021/12/10 15:30:39;;;;;;;33.00;19.17;;;3.10;99.90;;;;;;6250412;28;20471;-66
2021/12/10 15:33:42;;;;;;;30.03;19.67;;;3.10;99.90;;;;;;6250297;28;20475;-66
2021/12/10 15:36:45;;;;;;;30.33;18.57;;;3.20;99.90;;;;;;6249939;28;20482;-67
2021/12/10 15:39:54;;;;;;;32.90;19.37;;;3.10;99.90;;;;;;6250057;28;20557;-67
2021/12/10 15:43:01;;;;;;;27.90;18.03;;;3.10;99.90;;;;;;6240360;28;20479;-67
2021/12/10 15:46:13;;;;;;;32.50;20.30;;;3.10;99.90;;;;;;6249502;28;20481;-68
2021/12/10 15:49:23;;;;;;;31.47;19.30;;;3.10;99.90;;;;;;6250209;28;20528;-67
2021/12/10 15:52:26;;;;;;;33.53;19.40;;;3.10;99.90;;;;;;6249958;28;20475;-67
2021/12/10 15:55:32;;;;;;;29.43;19.13;;;3.10;99.90;;;;;;6249597;28;20478;-68
2021/12/10 15:58:37;;;;;;;29.70;18.10;;;3.10;99.90;;;;;;6250016;28;20993;-67
2021/12/10 16:01:45;;;;;;;30.03;18.70;;;3.00;99.90;;;;;;6250340;28;20475;-67
2021/12/10 16:04:51;;;;;;;27.10;17.40;;;3.00;99.90;;;;;;6249298;28;20966;-67
2021/12/10 16:07:59;;;;;;;31.40;19.63;;;3.00;99.90;;;;;;6243626;28;20490;-66
2021/12/10 16:11:04;;;;;;;32.80;20.47;;;3.00;99.90;;;;;;6249899;28;20467;-66
2021/12/10 16:14:07;;;;;;;33.57;19.70;;;3.00;99.90;;;;;;6249650;28;20467;-67
2021/12/10 16:17:14;;;;;;;29.03;19.57;;;3.00;99.90;;;;;;6249338;28;20466;-66
2021/12/10 16:20:21;;;;;;;38.37;22.30;;;3.00;99.90;;;;;;6247898;28;20552;-68
2021/12/10 16:23:30;;;;;;;46.10;25.80;;;3.00;99.90;;;;;;6248518;28;20482;-68